Weather at Taunovo Airstrip

Public forecast

Using degrees Celsius for public forecast. Weather courtesy of forecast.io.

Closest aviation weather report (METAR) to Taunovo Airstrip

Closest report is Nausori International Airport, 31.7 nm (58.8 km) ENE.

2022/11/27 08:00 (retrieved 17 minutes ago)

NFNA 270800Z 00000KT 9999 FEW016CB BKN280 26/22 Q1012

Closest aviation forecast (TAF) to Taunovo Airstrip

Closest forecast is Nausori International Airport, 31.7 nm (58.8 km) ENE.

2022/11/27 06:00 (retrieved 2 hours ago)

TAF NFNA 270506Z 2706/2806 VRB03KT 9999 SCT018 SCT040 PROB40 TEMPO 2714/2720 5000 TSRA BKN015 FEW018CB PROB40 TEMPO 2800/2806 5000 TSRA BKN015 FEW018CB